Time;durP1;ratioP1;P1;durP2;ratioP2;P2;SDS_P1;SDS_P2;PMS_P1;PMS_P2;Temp;Humidity;BMP_temperature;BMP_pressure;BME280_temperature;BME280_humidity;BME280_pressure;Samples;Min_cycle;Max_cycle;Signal;HPM_P1;HPM_P2
2022/10/24 00:01:31;;;;;;;0.93;0.87;;;15.80;67.60;15.20;95675.00;;;;5114814;28;20205;-52
2022/10/24 00:03:58;;;;;;;0.50;0.50;;;15.80;67.10;15.10;95688.00;;;;5114750;28;20219;-52
2022/10/24 00:06:25;;;;;;;0.80;0.80;;;15.80;67.50;15.00;95679.00;;;;5114810;28;20190;-52
2022/10/24 00:08:51;;;;;;;0.63;0.63;;;15.60;68.00;15.00;95683.00;;;;5114793;28;20198;-56
2022/10/24 00:11:21;;;;;;;0.73;0.73;;;15.60;68.60;15.10;95683.00;;;;5114761;28;20218;-51
2022/10/24 00:13:52;;;;;;;0.70;0.70;;;15.70;68.30;15.10;95688.00;;;;5114525;28;20225;-52
2022/10/24 00:16:19;;;;;;;1.40;0.80;;;15.60;68.10;15.10;95685.00;;;;5114410;28;20605;-52
2022/10/24 00:18:45;;;;;;;0.67;0.67;;;15.70;68.20;15.10;95681.00;;;;5114481;28;20222;-51
2022/10/24 00:21:12;;;;;;;0.93;0.90;;;15.70;67.80;15.10;95682.00;;;;5114427;28;20201;-54
2022/10/24 00:23:39;;;;;;;1.03;1.03;;;15.70;67.60;15.00;95679.00;;;;5114548;28;20190;-54
2022/10/24 00:26:06;;;;;;;0.90;0.90;;;15.70;67.70;15.00;95680.00;;;;5114594;28;20260;-60
2022/10/24 00:28:35;;;;;;;0.90;0.90;;;15.60;68.20;15.00;95679.00;;;;5114368;28;20236;-62
2022/10/24 00:31:02;;;;;;;0.60;0.60;;;15.60;68.20;14.90;95684.00;;;;5114425;28;20201;-54
2022/10/24 00:33:30;;;;;;;0.80;0.80;;;15.60;68.70;15.10;95695.00;;;;5113212;28;20286;-52
2022/10/24 00:35:59;;;;;;;0.50;0.50;;;15.60;68.90;14.80;95687.00;;;;5114304;28;20201;-57
2022/10/24 00:38:25;;;;;;;0.50;0.50;;;15.50;69.40;14.70;95688.00;;;;5114247;28;20637;-53
2022/10/24 00:40:52;;;;;;;0.80;0.80;;;15.40;70.10;14.70;95684.00;;;;5114331;28;20254;-56
2022/10/24 00:43:21;;;;;;;0.63;0.63;;;15.40;70.70;14.60;95687.00;;;;5114253;28;20198;-53
2022/10/24 00:45:53;;;;;;;0.67;0.67;;;15.30;71.20;14.50;95690.00;;;;5114196;28;20221;-57
2022/10/24 00:48:26;;;;;;;2.93;1.70;;;15.30;71.70;14.60;95692.00;;;;5096222;28;20709;-55
2022/10/24 00:50:59;;;;;;;2.43;1.17;;;15.30;71.90;14.50;95692.00;;;;5114132;28;20226;-56
2022/10/24 00:53:28;;;;;;;0.60;0.60;;;15.20;72.00;14.60;95700.00;;;;5113940;28;20624;-54
2022/10/24 00:56:00;;;;;;;0.63;0.63;;;15.20;71.80;14.60;95701.00;;;;5114015;28;20673;-56
2022/10/24 00:58:31;;;;;;;0.70;0.70;;;15.20;71.70;14.60;95702.00;;;;5114042;28;20193;-58
2022/10/24 01:00:58;;;;;;;0.60;0.60;;;15.30;71.20;14.60;95707.00;;;;5113856;28;20190;-54
2022/10/24 01:03:25;;;;;;;0.50;0.50;;;15.30;71.30;14.60;95709.00;;;;5113928;28;20675;-61
2022/10/24 01:06:25;;;;;;;0.63;0.63;;;15.30;71.30;14.60;95695.00;;;;5113892;28;20198;-53
2022/10/24 01:09:07;;;;;;;0.57;0.57;;;15.30;71.20;14.60;95686.00;;;;5113880;28;20280;-54
2022/10/24 01:11:52;;;;;;;0.53;0.53;;;15.30;71.20;14.60;95684.00;;;;5113765;28;20205;-53
2022/10/24 01:14:33;;;;;;;0.60;0.60;;;15.30;70.90;14.60;95701.00;;;;5113722;28;20668;-52
2022/10/24 01:17:12;;;;;;;0.60;0.60;;;15.30;71.00;14.60;95695.00;;;;5113705;28;20255;-52
2022/10/24 01:20:36;;;;;;;3.03;1.10;;;15.30;71.00;14.50;95697.00;;;;5113677;28;20606;-52
2022/10/24 01:23:23;;;;;;;0.97;0.97;;;15.30;71.30;14.50;95689.00;;;;5113644;28;20194;-53
2022/10/24 01:26:07;;;;;;;3.10;0.77;;;15.20;71.70;14.50;95697.00;;;;5113665;28;20185;-52
2022/10/24 01:28:52;;;;;;;3.33;1.73;;;15.10;71.90;14.40;95704.00;;;;5113559;28;20286;-52
2022/10/24 01:31:28;;;;;;;4.00;0.80;;;15.10;71.90;14.40;95714.00;;;;5113570;28;20224;-53
2022/10/24 01:34:05;;;;;;;0.80;0.80;;;15.10;72.10;14.40;95704.00;;;;5113508;28;20232;-52
2022/10/24 01:36:39;;;;;;;0.57;0.57;;;15.10;71.90;14.40;95699.00;;;;5113696;28;20209;-52
2022/10/24 01:39:14;;;;;;;0.50;0.50;;;15.10;72.00;14.40;95692.00;;;;5095419;28;20717;-52
2022/10/24 01:41:42;;;;;;;0.67;0.67;;;15.00;72.00;14.40;95698.00;;;;5113250;28;20218;-52
2022/10/24 01:44:17;;;;;;;0.70;0.70;;;15.10;71.90;14.40;95705.00;;;;5113373;28;20186;-52
2022/10/24 01:46:52;;;;;;;0.63;0.63;;;15.10;72.10;14.40;95700.00;;;;5116808;28;20217;-52
2022/10/24 01:49:23;;;;;;;1.90;1.80;;;15.10;72.10;14.40;95701.00;;;;5116890;28;20213;-52
2022/10/24 01:51:56;;;;;;;0.60;0.60;;;15.10;72.10;14.40;95693.00;;;;5098893;28;20232;-52
2022/10/24 01:54:23;;;;;;;0.57;0.57;;;15.10;72.00;14.40;95693.00;;;;5098947;28;20648;-53
2022/10/24 01:56:51;;;;;;;0.70;0.70;;;15.10;72.10;14.40;95705.00;;;;5116670;28;20502;-51
2022/10/24 01:59:45;;;;;;;1.03;1.03;;;15.10;72.30;14.40;95716.00;;;;5116795;28;20222;-51
2022/10/24 02:02:18;;;;;;;0.97;0.87;;;15.00;72.60;14.30;95715.00;;;;5116780;28;20259;-52
2022/10/24 02:04:55;;;;;;;0.60;0.60;;;15.00;73.40;14.40;95726.00;;;;5116642;28;20229;-52
2022/10/24 02:07:23;;;;;;;0.80;0.80;;;15.00;74.80;14.20;95708.00;;;;5116579;28;20555;-51
2022/10/24 02:09:56;;;;;;;0.60;0.60;;;14.90;76.20;14.10;95703.00;;;;5116503;28;20224;-52
2022/10/24 02:12:26;;;;;;;1.20;1.20;;;14.80;76.40;14.20;95700.00;;;;5116719;28;20190;-51
2022/10/24 02:15:04;;;;;;;0.63;0.63;;;14.80;76.40;14.10;95685.00;;;;5098518;28;20242;-54
2022/10/24 02:17:31;;;;;;;0.50;0.50;;;14.80;76.70;14.20;95689.00;;;;5116519;28;20663;-52
2022/10/24 02:19:59;;;;;;;5.60;1.77;;;14.90;76.60;14.10;95688.00;;;;5116285;28;20222;-52
2022/10/24 02:22:32;;;;;;;0.77;0.77;;;14.80;76.80;14.00;95695.00;;;;5116406;28;20206;-52
2022/10/24 02:25:06;;;;;;;0.83;0.73;;;14.70;78.10;14.00;95678.00;;;;5116253;28;20625;-52
2022/10/24 02:27:39;;;;;;;3.43;1.43;;;14.70;79.30;14.00;95673.00;;;;5116286;28;20525;-52
2022/10/24 02:30:11;;;;;;;0.60;0.60;;;14.70;79.60;13.90;95669.00;;;;5116309;28;20214;-54
2022/10/24 02:32:45;;;;;;;1.03;1.03;;;14.70;79.80;13.90;95657.00;;;;5116241;28;20524;-52
2022/10/24 02:35:18;;;;;;;0.70;0.70;;;14.60;80.10;13.90;95681.00;;;;5116219;28;20232;-52
2022/10/24 02:37:50;;;;;;;1.10;1.00;;;14.60;80.30;13.90;95678.00;;;;5116090;28;20225;-51
2022/10/24 02:40:20;;;;;;;0.67;0.67;;;14.50;80.80;13.80;95675.00;;;;5116201;28;20281;-52
2022/10/24 02:42:50;;;;;;;0.80;0.80;;;14.60;81.00;13.80;95683.00;;;;5115999;28;20645;-50
2022/10/24 02:45:18;;;;;;;1.40;1.17;;;14.50;81.20;13.80;95672.00;;;;5115994;28;20206;-51
2022/10/24 02:47:49;;;;;;;0.77;0.77;;;14.40;81.70;13.90;95670.00;;;;5115809;28;20322;-51
2022/10/24 02:50:16;;;;;;;11.13;1.83;;;14.60;82.40;13.80;95666.00;;;;5115835;28;20288;-51
2022/10/24 02:52:43;;;;;;;0.60;0.60;;;14.50;81.90;13.80;95663.00;;;;5116107;28;20292;-51
2022/10/24 02:55:10;;;;;;;0.60;0.60;;;14.50;82.20;13.80;95667.00;;;;5115686;28;20309;-52
2022/10/24 02:57:37;;;;;;;0.60;0.60;;;14.50;82.60;13.80;95674.00;;;;5114591;28;20217;-53
2022/10/24 03:00:05;;;;;;;1.43;1.33;;;14.40;82.70;13.90;95667.00;;;;5115753;28;20198;-53
2022/10/24 03:02:32;;;;;;;0.60;0.60;;;14.50;82.60;14.30;95667.00;;;;5115866;28;20588;-53
2022/10/24 03:05:00;;;;;;;3.97;2.83;;;14.80;82.00;14.70;95666.00;;;;5115689;28;20300;-53
2022/10/24 03:07:26;;;;;;;0.90;0.90;;;15.10;80.70;14.80;95670.00;;;;5115627;28;20288;-53
2022/10/24 03:09:53;;;;;;;0.83;0.83;;;15.20;79.50;14.90;95681.00;;;;5115610;28;20257;-53
2022/10/24 03:12:23;;;;;;;2.33;1.00;;;15.40;78.70;14.90;95686.00;;;;5115561;28;20542;-52
2022/10/24 03:14:49;;;;;;;0.87;0.87;;;15.40;78.70;14.90;95700.00;;;;5115384;28;20313;-51
2022/10/24 03:17:15;;;;;;;1.20;1.10;;;15.40;78.50;14.90;95699.00;;;;5097497;28;20231;-52
2022/10/24 03:19:43;;;;;;;1.23;1.20;;;15.60;78.30;15.00;95699.00;;;;5115489;28;20250;-51
2022/10/24 03:22:11;;;;;;;0.87;0.87;;;15.60;79.00;15.20;95705.00;;;;5115552;28;20218;-51
2022/10/24 03:24:37;;;;;;;0.53;0.53;;;15.70;80.00;15.20;95695.00;;;;5115346;28;20212;-52
2022/10/24 03:27:06;;;;;;;0.60;0.60;;;15.70;79.60;15.20;95694.00;;;;5115192;28;20303;-51
2022/10/24 03:29:32;;;;;;;1.27;1.17;;;15.80;79.60;15.10;95685.00;;;;5115294;28;20277;-51
2022/10/24 03:31:58;;;;;;;0.77;0.77;;;15.70;79.60;15.20;95676.00;;;;5115120;28;20651;-53
2022/10/24 03:34:25;;;;;;;0.60;0.60;;;15.70;80.40;15.10;95668.00;;;;5115156;28;20214;-52
2022/10/24 03:36:51;;;;;;;0.60;0.60;;;15.80;80.30;15.10;95654.00;;;;5115153;28;20198;-51
2022/10/24 03:39:18;;;;;;;3.90;1.27;;;15.70;80.80;15.10;95655.00;;;;5097151;28;20233;-51
2022/10/24 03:41:45;;;;;;;0.70;0.70;;;15.70;81.20;15.00;95664.00;;;;5115354;28;20212;-51
2022/10/24 03:44:12;;;;;;;1.93;1.77;;;15.60;81.30;15.00;95663.00;;;;5114957;28;20222;-51
2022/10/24 03:46:38;;;;;;;0.70;0.70;;;15.60;81.70;15.00;95673.00;;;;5115100;28;20272;-51
2022/10/24 03:49:04;;;;;;;3.90;2.10;;;15.60;82.50;15.00;95668.00;;;;5115167;28;20222;-51
2022/10/24 03:51:31;;;;;;;0.53;0.53;;;15.60;82.00;15.00;95673.00;;;;5115809;28;20208;-51
2022/10/24 03:53:57;;;;;;;0.70;0.70;;;15.60;82.40;15.10;95697.00;;;;5114918;28;20224;-53
2022/10/24 03:56:24;;;;;;;2.53;1.23;;;15.60;82.60;15.00;95686.00;;;;5115186;28;20737;-52
2022/10/24 03:58:51;;;;;;;2.00;1.63;;;15.50;83.80;14.90;95699.00;;;;5114788;28;20206;-51
2022/10/24 04:01:18;;;;;;;1.10;1.10;;;15.50;85.30;14.90;95710.00;;;;5114632;28;20217;-52
2022/10/24 04:03:45;;;;;;;0.80;0.80;;;;;15.00;95697.00;;;;5114729;28;20285;-51
2022/10/24 04:06:12;;;;;;;0.60;0.60;;;;;15.00;95702.00;;;;5114619;28;20232;-53
2022/10/24 04:08:39;;;;;;;0.63;0.63;;;;;15.00;95689.00;;;;5114344;28;20190;-51
2022/10/24 04:11:06;;;;;;;0.67;0.67;;;;;15.00;95701.00;;;;5114625;28;20202;-51
2022/10/24 04:13:34;;;;;;;1.13;1.13;;;;;15.00;95710.00;;;;5114579;28;20190;-51
2022/10/24 04:16:01;;;;;;;1.23;1.20;;;;;15.00;95700.00;;;;5114591;28;20228;-51
2022/10/24 04:18:27;;;;;;;0.83;0.83;;;;;15.00;95696.00;;;;5114651;28;20194;-51
2022/10/24 04:20:57;;;;;;;0.70;0.70;;;;;14.90;95692.00;;;;5114499;28;20553;-51
2022/10/24 04:23:24;;;;;;;2.00;1.53;;;;;15.00;95676.00;;;;5096269;28;20561;-51
2022/10/24 04:25:53;;;;;;;1.00;0.97;;;;;14.90;95673.00;;;;5114311;28;20540;-51
2022/10/24 04:28:20;;;;;;;1.57;1.47;;;;;15.00;95672.00;;;;5114203;28;20221;-51
2022/10/24 04:30:52;;;;;;;0.87;0.87;;;;;15.10;95668.00;;;;5096315;28;20621;-51
2022/10/24 04:33:19;;;;;;;0.90;0.90;;;;;15.00;95685.00;;;;5114243;28;20223;-51
2022/10/24 04:35:47;;;;;;;1.17;1.17;;;;;15.00;95690.00;;;;5114156;28;20233;-53
2022/10/24 04:38:14;;;;;;;1.60;1.50;;;15.60;85.70;15.00;95690.00;;;;5114591;28;20663;-51
2022/10/24 04:40:47;;;;;;;0.93;0.93;;;15.60;86.30;14.90;95657.00;;;;5114156;28;20221;-52
2022/10/24 04:43:13;;;;;;;0.80;0.80;;;15.60;86.10;15.00;95700.00;;;;5114113;28;20198;-51
2022/10/24 04:45:40;;;;;;;1.13;1.13;;;;;15.00;95697.00;;;;5114057;28;20527;-51
2022/10/24 04:48:07;;;;;;;1.13;1.07;;;15.60;85.80;15.00;95684.00;;;;5114054;28;20584;-51
2022/10/24 04:50:34;;;;;;;0.90;0.90;;;15.60;86.60;15.00;95694.00;;;;5114063;28;20202;-52
2022/10/24 04:53:01;;;;;;;1.60;1.37;;;15.60;87.10;15.10;95705.00;;;;5114021;28;20220;-51
2022/10/24 04:55:27;;;;;;;1.13;1.13;;;15.60;86.00;15.00;95693.00;;;;5113997;28;20605;-53
2022/10/24 04:57:54;;;;;;;0.70;0.70;;;15.60;86.20;14.80;95686.00;;;;5113985;28;20645;-52
2022/10/24 05:00:22;;;;;;;0.80;0.67;;;15.50;87.00;15.00;95688.00;;;;5113953;28;20278;-53
2022/10/24 05:02:51;;;;;;;1.20;1.20;;;15.50;87.50;14.90;95698.00;;;;5113744;28;20255;-52
2022/10/24 05:05:18;;;;;;;5.97;1.13;;;15.50;86.50;15.00;95729.00;;;;5113749;28;20212;-51
2022/10/24 05:07:45;;;;;;;1.13;1.13;;;15.50;86.60;15.00;95733.00;;;;5113870;28;20257;-51
2022/10/24 05:10:14;;;;;;;0.60;0.60;;;15.60;85.90;15.00;95730.00;;;;5113795;28;20205;-53
2022/10/24 05:12:41;;;;;;;0.60;0.60;;;15.50;85.80;14.90;95736.00;;;;5113684;28;20200;-51
2022/10/24 05:15:10;;;;;;;1.80;0.93;;;15.50;86.70;15.00;95743.00;;;;5113672;28;20732;-52
2022/10/24 05:17:37;;;;;;;1.23;1.17;;;15.50;86.90;14.90;95757.00;;;;5113640;28;20625;-51
2022/10/24 05:20:06;;;;;;;0.60;0.60;;;15.50;86.90;14.70;95767.00;;;;5114785;28;20282;-52
2022/10/24 05:22:33;;;;;;;1.17;1.17;;;15.30;88.50;14.60;95744.00;;;;5117344;28;20194;-56
2022/10/24 05:25:00;;;;;;;1.10;0.93;;;15.30;89.60;14.50;95739.00;;;;5117275;28;20253;-55
2022/10/24 05:27:26;;;;;;;0.77;0.77;;;15.20;90.00;14.40;95740.00;;;;5117369;28;20280;-56
2022/10/24 05:29:53;;;;;;;0.80;0.80;;;15.10;91.00;14.50;95739.00;;;;5117167;28;20225;-54
2022/10/24 05:32:22;;;;;;;3.27;1.17;;;15.10;91.00;14.60;95739.00;;;;5117239;28;20198;-51
2022/10/24 05:34:49;;;;;;;0.83;0.83;;;15.20;90.40;14.60;95722.00;;;;5117130;28;20586;-51
2022/10/24 05:37:15;;;;;;;0.80;0.80;;;15.10;90.90;14.60;95728.00;;;;5117185;28;20643;-51
2022/10/24 05:39:42;;;;;;;1.00;0.97;;;15.20;90.90;14.70;95714.00;;;;5117099;28;20190;-53
2022/10/24 05:42:10;;;;;;;1.40;1.30;;;15.30;90.40;14.50;95692.00;;;;5099053;28;20218;-52
2022/10/24 05:44:38;;;;;;;0.93;0.93;;;15.20;91.60;14.40;95702.00;;;;5116933;28;20240;-51
2022/10/24 05:47:07;;;;;;;0.87;0.87;;;15.00;92.80;14.40;95718.00;;;;5116728;28;20304;-52
2022/10/24 05:49:34;;;;;;;0.60;0.60;;;15.00;92.70;14.30;95730.00;;;;5101043;28;20198;-51
2022/10/24 05:52:00;;;;;;;3.20;0.97;;;15.00;93.50;14.20;95741.00;;;;5116811;28;20202;-53
2022/10/24 05:54:27;;;;;;;1.10;1.03;;;14.90;94.20;14.10;95741.00;;;;5116765;28;20221;-53
2022/10/24 05:56:54;;;;;;;0.63;0.63;;;14.70;95.30;14.00;95731.00;;;;5116800;28;20251;-52
2022/10/24 05:59:20;;;;;;;2.70;1.57;;;14.70;96.00;14.00;95725.00;;;;5116598;28;20249;-52
2022/10/24 06:01:46;;;;;;;1.33;1.23;;;14.70;95.90;14.10;95727.00;;;;5116901;28;20202;-52
2022/10/24 06:04:13;;;;;;;1.30;1.20;;;14.70;96.00;14.10;95731.00;;;;5116604;28;20221;-52
2022/10/24 06:06:41;;;;;;;0.73;0.73;;;14.70;95.90;14.10;95717.00;;;;5116571;28;20633;-52
2022/10/24 06:09:08;;;;;;;0.73;0.73;;;14.70;95.90;14.00;95717.00;;;;5116609;28;20225;-52
2022/10/24 06:11:34;;;;;;;0.90;0.90;;;14.70;96.20;14.10;95716.00;;;;5116614;28;20202;-51
2022/10/24 06:14:02;;;;;;;1.00;1.00;;;14.70;96.50;14.20;95717.00;;;;5116586;28;20276;-53
2022/10/24 06:16:33;;;;;;;0.60;0.60;;;14.80;96.10;14.30;95718.00;;;;5116583;28;20224;-53
2022/10/24 06:19:01;;;;;;;0.90;0.90;;;14.90;94.40;14.10;95721.00;;;;5116428;28;20668;-51
2022/10/24 06:21:28;;;;;;;0.50;0.50;;;14.60;94.50;14.20;95726.00;;;;5116389;28;20201;-51
2022/10/24 06:23:54;;;;;;;0.90;0.90;;;14.80;94.00;14.20;95750.00;;;;5116408;28;20190;-51
2022/10/24 06:26:21;;;;;;;0.50;0.50;;;14.70;94.30;14.20;95763.00;;;;5116250;28;20545;-51
2022/10/24 06:28:49;;;;;;;1.20;1.20;;;14.70;94.60;14.00;95762.00;;;;5116246;28;20267;-53
2022/10/24 06:31:18;;;;;;;0.90;0.90;;;14.50;95.40;13.80;95756.00;;;;5116180;28;20273;-52
2022/10/24 06:33:44;;;;;;;1.00;1.00;;;14.50;95.90;14.10;95774.00;;;;5116159;28;20706;-51
2022/10/24 06:36:11;;;;;;;3.57;1.93;;;14.60;96.40;14.10;95795.00;;;;5116158;28;20690;-51
2022/10/24 06:38:37;;;;;;;0.50;0.50;;;14.60;95.60;14.00;95810.00;;;;5116016;28;20724;-51
2022/10/24 06:41:09;;;;;;;0.73;0.73;;;14.60;96.50;13.90;95783.00;;;;5116217;28;20206;-52
2022/10/24 06:43:37;;;;;;;2.37;1.13;;;14.60;97.00;13.90;95744.00;;;;5115982;28;20680;-51
2022/10/24 06:46:08;;;;;;;3.40;1.93;;;14.50;97.70;13.80;95758.00;;;;5115849;28;20736;-52
2022/10/24 06:48:36;;;;;;;0.80;0.80;;;14.50;98.70;13.90;95774.00;;;;5116006;28;20221;-51
2022/10/24 06:51:04;;;;;;;0.77;0.77;;;14.50;98.70;13.70;95756.00;;;;5115842;28;20209;-52
2022/10/24 06:53:31;;;;;;;1.63;1.53;;;14.40;99.30;13.80;95761.00;;;;5115823;28;20189;-53
2022/10/24 06:56:00;;;;;;;1.10;1.03;;;14.40;99.90;13.80;95754.00;;;;5115917;28;20548;-52
2022/10/24 06:58:31;;;;;;;1.10;1.10;;;14.50;99.90;13.80;95742.00;;;;5115773;28;20301;-51
2022/10/24 07:00:58;;;;;;;0.80;0.80;;;14.50;99.90;13.80;95760.00;;;;5097883;28;20629;-51
2022/10/24 07:03:25;;;;;;;0.93;0.93;;;14.50;99.90;13.80;95729.00;;;;5115747;28;20266;-51
2022/10/24 07:05:52;;;;;;;5.43;1.57;;;14.50;99.90;13.90;95749.00;;;;5115810;28;20191;-51
2022/10/24 07:08:18;;;;;;;0.50;0.50;;;14.50;99.90;13.90;95763.00;;;;5115611;28;20204;-52
2022/10/24 07:10:45;;;;;;;0.97;0.97;;;14.50;99.90;13.80;95772.00;;;;5115621;28;20228;-52
2022/10/24 07:13:11;;;;;;;0.87;0.77;;;14.60;99.90;13.90;95786.00;;;;5115712;28;20202;-54
2022/10/24 07:15:38;;;;;;;1.20;0.97;;;14.50;99.90;13.90;95781.00;;;;5115436;28;20800;-51
2022/10/24 07:18:04;;;;;;;1.27;1.17;;;14.50;99.90;13.90;95770.00;;;;5097538;28;20236;-52
2022/10/24 07:20:31;;;;;;;0.70;0.70;;;14.60;99.90;13.90;95765.00;;;;5115499;28;20229;-51
2022/10/24 07:22:58;;;;;;;0.90;0.90;;;14.50;99.90;13.90;95749.00;;;;5115451;28;20229;-53
2022/10/24 07:25:27;;;;;;;0.93;0.87;;;14.50;99.90;13.90;95774.00;;;;5097600;28;20259;-53
2022/10/24 07:27:54;;;;;;;1.27;1.00;;;14.60;99.90;13.90;95773.00;;;;5115493;28;20763;-51
2022/10/24 07:30:24;;;;;;;0.60;0.60;;;14.60;99.90;13.90;95776.00;;;;5115322;28;20233;-51
2022/10/24 07:32:50;;;;;;;2.43;1.80;;;14.60;99.90;14.00;95778.00;;;;5115384;28;20281;-52
2022/10/24 07:35:17;;;;;;;1.30;1.30;;;14.60;99.90;13.90;95781.00;;;;5115296;28;20237;-54
2022/10/24 07:37:43;;;;;;;3.10;1.27;;;14.60;99.90;13.90;95763.00;;;;5115284;28;20711;-52
2022/10/24 07:40:12;;;;;;;0.73;0.73;;;14.60;99.90;13.80;95743.00;;;;5115269;28;20194;-59
2022/10/24 07:42:41;;;;;;;1.17;1.17;;;14.50;99.90;14.00;95775.00;;;;5114477;28;20512;-52
2022/10/24 07:45:10;;;;;;;1.00;1.00;;;14.60;99.90;14.00;95776.00;;;;5115024;28;20289;-52
2022/10/24 07:47:36;;;;;;;1.60;0.77;;;14.60;99.90;14.10;95775.00;;;;5115296;28;20527;-54
2022/10/24 07:50:04;;;;;;;1.83;1.73;;;14.70;99.90;14.20;95774.00;;;;5114920;28;20237;-52
2022/10/24 07:52:31;;;;;;;22.73;1.73;;;14.80;99.90;14.10;95765.00;;;;5097014;28;20614;-53
2022/10/24 07:55:00;;;;;;;0.80;0.80;;;14.70;99.90;14.10;95763.00;;;;5114920;28;20237;-54
2022/10/24 07:57:27;;;;;;;2.57;1.27;;;14.70;99.90;14.10;95763.00;;;;5114995;28;20284;-54
2022/10/24 07:59:53;;;;;;;0.83;0.80;;;14.70;99.90;14.30;95773.00;;;;5114910;28;20285;-54
2022/10/24 08:02:20;;;;;;;0.60;0.60;;;14.90;99.90;14.40;95767.00;;;;5114845;28;20221;-54
2022/10/24 08:04:46;;;;;;;1.70;1.40;;;15.00;99.10;14.50;95766.00;;;;5096911;28;20649;-55
2022/10/24 08:07:13;;;;;;;1.27;1.17;;;15.00;99.00;14.30;95765.00;;;;5114851;28;20194;-54
2022/10/24 08:09:41;;;;;;;0.90;0.90;;;15.00;99.00;14.40;95760.00;;;;5114757;28;20241;-57
2022/10/24 08:12:08;;;;;;;1.60;1.50;;;15.00;98.90;14.40;95768.00;;;;5114920;28;20243;-54
2022/10/24 08:14:36;;;;;;;0.77;0.77;;;14.90;98.80;14.40;95784.00;;;;5114574;28;20221;-54
2022/10/24 08:17:03;;;;;;;0.50;0.50;;;15.00;98.40;14.30;95771.00;;;;5114790;28;20194;-52
2022/10/24 08:19:33;;;;;;;6.60;1.87;;;15.00;98.20;14.40;95768.00;;;;5114952;28;20245;-56
2022/10/24 08:22:00;;;;;;;4.83;1.07;;;15.00;98.50;14.50;95776.00;;;;5114756;28;20293;-54
2022/10/24 08:24:27;;;;;;;1.53;1.30;;;15.10;98.30;14.50;95765.00;;;;5114615;28;20190;-54
2022/10/24 08:26:55;;;;;;;0.90;0.90;;;15.10;98.00;14.60;95772.00;;;;5114526;28;20194;-52
2022/10/24 08:29:24;;;;;;;3.80;2.77;;;15.20;97.70;14.60;95766.00;;;;5114465;28;20640;-53
2022/10/24 08:31:55;;;;;;;7.00;1.33;;;15.20;97.80;14.60;95759.00;;;;5114426;28;20226;-52
2022/10/24 08:34:22;;;;;;;1.43;1.23;;;15.20;95.90;14.70;95787.00;;;;5114313;28;20205;-52
2022/10/24 08:36:49;;;;;;;0.87;0.87;;;15.20;95.30;14.60;95782.00;;;;5114059;28;20221;-52
2022/10/24 08:39:16;;;;;;;1.13;1.07;;;15.00;95.20;14.40;95768.00;;;;5114517;28;20514;-53
2022/10/24 08:41:49;;;;;;;0.60;0.60;;;15.00;96.20;14.50;95760.00;;;;5114378;28;20295;-52
2022/10/24 08:44:25;;;;;;;4.07;1.73;;;15.00;97.00;14.50;95761.00;;;;5114203;28;20209;-53
2022/10/24 08:47:00;;;;;;;0.80;0.80;;;15.00;96.50;14.50;95742.00;;;;5114229;28;20202;-51
2022/10/24 08:49:37;;;;;;;0.80;0.80;;;15.10;97.60;14.50;95759.00;;;;5114250;28;20225;-53
2022/10/24 08:52:15;;;;;;;0.60;0.60;;;15.10;96.30;14.50;95766.00;;;;5114132;28;20198;-57
2022/10/24 08:54:45;;;;;;;0.60;0.60;;;15.10;95.90;14.50;95765.00;;;;5112966;28;20684;-52
2022/10/24 08:57:21;;;;;;;1.90;1.53;;;15.10;96.70;14.60;95779.00;;;;5114068;28;20210;-53
2022/10/24 08:59:49;;;;;;;2.20;1.20;;;15.00;99.90;14.50;95778.00;;;;5114023;28;20264;-52
2022/10/24 09:02:22;;;;;;;1.23;1.10;;;15.10;95.50;14.60;95776.00;;;;5114021;28;20201;-53
2022/10/24 09:04:57;;;;;;;0.40;0.40;;;15.00;96.10;14.50;95786.00;;;;5096167;28;20205;-53
2022/10/24 09:07:27;;;;;;;0.70;0.70;;;15.10;95.70;14.50;95774.00;;;;5114008;28;20198;-53
2022/10/24 09:10:04;;;;;;;0.80;0.80;;;15.10;95.80;14.50;95786.00;;;;5113877;28;20190;-54
2022/10/24 09:12:35;;;;;;;0.60;0.60;;;;;14.40;95797.00;;;;5113900;28;20312;-54
2022/10/24 09:15:13;;;;;;;0.50;0.50;;;;;14.50;95803.00;;;;5113865;28;20214;-54
2022/10/24 09:17:41;;;;;;;0.73;0.73;;;;;14.40;95801.00;;;;5113780;28;20249;-52
2022/10/24 09:20:22;;;;;;;0.83;0.83;;;;;14.50;95798.00;;;;5113867;28;20200;-52
2022/10/24 09:22:52;;;;;;;0.80;0.80;;;;;14.50;95789.00;;;;5113683;28;20555;-52
2022/10/24 09:25:23;;;;;;;0.60;0.60;;;;;14.40;95806.00;;;;5113753;28;20202;-55
2022/10/24 09:27:50;;;;;;;1.07;1.07;;;;;14.50;95809.00;;;;5113534;28;20190;-53
2022/10/24 09:30:21;;;;;;;1.00;0.90;;;;;14.50;95807.00;;;;5113542;28;20241;-52
2022/10/24 09:32:48;;;;;;;0.50;0.50;;;;;14.50;95820.00;;;;5113628;28;20498;-54
2022/10/24 09:35:19;;;;;;;0.63;0.63;;;;;14.50;95816.00;;;;5113348;28;20236;-52
2022/10/24 09:37:48;;;;;;;0.50;0.50;;;;;14.60;95822.00;;;;5113466;28;20193;-53
2022/10/24 09:40:20;;;;;;;1.60;1.03;;;;;14.50;95810.00;;;;5113408;28;20218;-53
2022/10/24 09:42:51;;;;;;;0.60;0.60;;;;;14.50;95805.00;;;;5113444;28;20194;-52
2022/10/24 09:45:28;;;;;;;0.70;0.70;;;;;14.50;95809.00;;;;5095326;28;20234;-52
2022/10/24 09:47:58;;;;;;;1.00;1.00;;;;;14.50;95811.00;;;;5113325;28;20352;-53
2022/10/24 09:50:25;;;;;;;0.63;0.63;;;;;14.50;95809.00;;;;5113233;28;20330;-52
2022/10/24 09:52:56;;;;;;;1.20;0.97;;;;;14.50;95817.00;;;;5113303;28;20199;-54
2022/10/24 09:55:27;;;;;;;0.93;0.93;;;;;14.50;95803.00;;;;5095313;28;20218;-52
2022/10/24 09:57:56;;;;;;;1.00;1.00;;;;;14.50;95806.00;;;;5113179;28;20225;-58
2022/10/24 10:00:26;;;;;;;1.10;1.10;;;;;14.60;95806.00;;;;5113271;28;20182;-51
2022/10/24 10:03:00;;;;;;;4.10;0.93;;;;;14.70;95814.00;;;;5095326;28;20326;-53
2022/10/24 10:05:29;;;;;;;0.70;0.70;;;;;14.70;95817.00;;;;5113285;28;20266;-51
2022/10/24 10:08:10;;;;;;;1.00;1.00;;;;;14.80;95807.00;;;;5116745;28;20210;-53
2022/10/24 10:10:37;;;;;;;1.70;1.27;;;;;14.80;95808.00;;;;5116726;28;20198;-53
2022/10/24 10:13:17;;;;;;;0.80;0.80;;;;;14.80;95812.00;;;;5116718;28;20653;-57
2022/10/24 10:15:46;;;;;;;14.53;1.23;;;;;14.80;95810.00;;;;5116606;28;20228;-53
2022/10/24 10:18:31;;;;;;;0.43;0.43;;;;;14.80;95822.00;;;;5098563;28;20528;-56
2022/10/24 10:21:05;;;;;;;0.60;0.60;;;;;14.70;95823.00;;;;5116463;28;20209;-53
2022/10/24 10:23:35;;;;;;;0.50;0.50;;;;;14.80;95828.00;;;;5098594;28;20221;-54
2022/10/24 10:26:04;;;;;;;1.53;1.43;;;;;14.70;95830.00;;;;5116511;28;20230;-54
2022/10/24 10:28:35;;;;;;;0.60;0.60;;;;;14.80;95829.00;;;;5116392;28;20209;-57
2022/10/24 10:31:02;;;;;;;0.83;0.83;;;;;14.70;95831.00;;;;5116442;28;20183;-57
2022/10/24 10:33:38;;;;;;;0.60;0.60;;;;;14.70;95829.00;;;;5116508;28;20190;-53
2022/10/24 10:36:11;;;;;;;1.60;1.50;;;;;14.70;95830.00;;;;5098175;28;20231;-54
2022/10/24 10:38:48;;;;;;;0.80;0.80;;;;;14.70;95837.00;;;;5116406;28;20617;-55
2022/10/24 10:41:33;;;;;;;0.70;0.70;;;;;14.70;95842.00;;;;5116311;28;20254;-54
2022/10/24 10:44:14;;;;;;;1.63;1.53;;;;;14.70;95842.00;;;;5098151;28;20275;-52
2022/10/24 10:46:50;;;;;;;0.60;0.60;;;;;14.70;95853.00;;;;5116316;28;20190;-52
2022/10/24 10:49:23;;;;;;;0.70;0.70;;;;;14.90;95866.00;;;;5098126;28;20233;-54
2022/10/24 10:51:56;;;;;;;0.50;0.50;;;;;15.00;95843.00;;;;5116057;28;20204;-54
2022/10/24 10:54:43;;;;;;;1.07;1.07;;;;;15.00;95849.00;;;;5115844;28;20182;-52
2022/10/24 10:57:14;;;;;;;0.80;0.80;;;;;14.90;95841.00;;;;5098020;28;20198;-53
2022/10/24 10:59:51;;;;;;;0.77;0.77;;;;;15.00;95849.00;;;;5098032;28;20198;-51
2022/10/24 11:02:49;;;;;;;0.80;0.80;;;;;15.10;95857.00;;;;5115889;28;20210;-53
2022/10/24 11:05:31;;;;;;;0.90;0.90;;;;;15.10;95859.00;;;;5115939;28;20202;-54
2022/10/24 11:08:07;;;;;;;0.80;0.80;;;;;15.10;95851.00;;;;5097892;28;20266;-60
2022/10/24 11:10:37;;;;;;;0.77;0.77;;;;;15.10;95862.00;;;;5115709;28;20190;-51
2022/10/24 11:13:10;;;;;;;0.90;0.90;;;;;15.10;95856.00;;;;5115598;28;20210;-51
2022/10/24 11:15:43;;;;;;;1.07;1.03;;;;;15.20;95854.00;;;;5115555;28;20225;-52
2022/10/24 11:18:17;;;;;;;0.50;0.50;;;;;15.20;95842.00;;;;5114450;28;20304;-52
2022/10/24 11:20:50;;;;;;;0.60;0.60;;;;;15.30;95836.00;;;;5115719;28;20253;-53
2022/10/24 11:23:22;;;;;;;0.80;0.80;;;;;15.30;95847.00;;;;5115453;28;20204;-52
2022/10/24 11:25:53;;;;;;;2.00;1.13;;;;;15.30;95849.00;;;;5115587;28;20563;-53
2022/10/24 11:28:30;;;;;;;0.70;0.70;;;;;15.30;95843.00;;;;5115781;28;20210;-57